sensor_id;sensor_type;location;lat;lon;timestamp;temperature;humidity
24041;DHT22;12246;47.612;18.906;2022-11-02T00:00:13;10.80;99.90
24041;DHT22;12246;47.612;18.906;2022-11-02T00:03:06;10.80;99.90
24041;DHT22;12246;47.612;18.906;2022-11-02T00:05:59;10.80;99.90
24041;DHT22;12246;47.612;18.906;2022-11-02T00:08:51;10.80;99.90
24041;DHT22;12246;47.612;18.906;2022-11-02T00:11:43;10.80;99.90
24041;DHT22;12246;47.612;18.906;2022-11-02T00:14:35;10.70;99.90
24041;DHT22;12246;47.612;18.906;2022-11-02T00:17:28;10.80;99.90
24041;DHT22;12246;47.612;18.906;2022-11-02T00:20:20;10.80;99.90
24041;DHT22;12246;47.612;18.906;2022-11-02T00:23:13;10.80;99.90
24041;DHT22;12246;47.612;18.906;2022-11-02T00:26:06;10.80;99.90
24041;DHT22;12246;47.612;18.906;2022-11-02T00:28:58;10.90;99.90
24041;DHT22;12246;47.612;18.906;2022-11-02T00:31:50;10.90;99.90
24041;DHT22;12246;47.612;18.906;2022-11-02T00:34:43;11.00;99.90
24041;DHT22;12246;47.612;18.906;2022-11-02T00:37:35;11.00;99.90
24041;DHT22;12246;47.612;18.906;2022-11-02T00:40:27;10.90;99.90
24041;DHT22;12246;47.612;18.906;2022-11-02T00:43:19;10.90;99.90
24041;DHT22;12246;47.612;18.906;2022-11-02T00:46:11;11.00;99.90
24041;DHT22;12246;47.612;18.906;2022-11-02T00:49:04;11.00;99.90
24041;DHT22;12246;47.612;18.906;2022-11-02T00:51:56;11.00;99.90
24041;DHT22;12246;47.612;18.906;2022-11-02T00:54:48;11.10;99.90
24041;DHT22;12246;47.612;18.906;2022-11-02T00:57:40;11.10;99.90
24041;DHT22;12246;47.612;18.906;2022-11-02T01:00:33;11.10;99.90
24041;DHT22;12246;47.612;18.906;2022-11-02T01:03:25;11.10;99.90
24041;DHT22;12246;47.612;18.906;2022-11-02T01:06:17;11.10;99.90
24041;DHT22;12246;47.612;18.906;2022-11-02T01:09:10;11.00;99.90
24041;DHT22;12246;47.612;18.906;2022-11-02T01:12:03;11.00;99.90
24041;DHT22;12246;47.612;18.906;2022-11-02T01:14:55;11.00;99.90
24041;DHT22;12246;47.612;18.906;2022-11-02T01:17:47;10.90;99.90
24041;DHT22;12246;47.612;18.906;2022-11-02T01:20:40;11.00;99.90
24041;DHT22;12246;47.612;18.906;2022-11-02T01:23:33;11.00;99.90
24041;DHT22;12246;47.612;18.906;2022-11-02T01:26:25;11.00;99.90
24041;DHT22;12246;47.612;18.906;2022-11-02T01:29:18;10.90;99.90
24041;DHT22;12246;47.612;18.906;2022-11-02T01:32:10;10.90;99.90
24041;DHT22;12246;47.612;18.906;2022-11-02T01:35:02;11.10;99.90
24041;DHT22;12246;47.612;18.906;2022-11-02T01:37:54;11.00;99.90
24041;DHT22;12246;47.612;18.906;2022-11-02T01:40:47;11.00;99.90
24041;DHT22;12246;47.612;18.906;2022-11-02T01:43:41;11.00;99.90
24041;DHT22;12246;47.612;18.906;2022-11-02T01:46:40;11.10;99.90
24041;DHT22;12246;47.612;18.906;2022-11-02T01:49:36;11.10;99.90
24041;DHT22;12246;47.612;18.906;2022-11-02T01:52:33;11.10;99.90
24041;DHT22;12246;47.612;18.906;2022-11-02T01:55:31;11.10;99.90
24041;DHT22;12246;47.612;18.906;2022-11-02T01:58:25;11.00;99.90
24041;DHT22;12246;47.612;18.906;2022-11-02T02:01:17;11.00;99.90
24041;DHT22;12246;47.612;18.906;2022-11-02T02:04:10;11.00;99.90
24041;DHT22;12246;47.612;18.906;2022-11-02T02:07:03;11.00;99.90
24041;DHT22;12246;47.612;18.906;2022-11-02T02:09:56;11.00;99.90
24041;DHT22;12246;47.612;18.906;2022-11-02T02:12:49;11.00;99.90
24041;DHT22;12246;47.612;18.906;2022-11-02T02:16:14;11.10;99.90
24041;DHT22;12246;47.612;18.906;2022-11-02T02:29:14;11.00;99.90
24041;DHT22;12246;47.612;18.906;2022-11-02T02:32:15;10.80;99.90
24041;DHT22;12246;47.612;18.906;2022-11-02T02:35:29;10.70;99.90
24041;DHT22;12246;47.612;18.906;2022-11-02T02:38:34;10.70;99.90
24041;DHT22;12246;47.612;18.906;2022-11-02T02:41:38;10.70;99.90
24041;DHT22;12246;47.612;18.906;2022-11-02T02:44:34;10.60;99.90
24041;DHT22;12246;47.612;18.906;2022-11-02T02:47:29;10.60;99.90
24041;DHT22;12246;47.612;18.906;2022-11-02T02:50:29;10.60;99.90
24041;DHT22;12246;47.612;18.906;2022-11-02T02:53:41;10.60;99.90
24041;DHT22;12246;47.612;18.906;2022-11-02T02:56:44;10.60;99.90
24041;DHT22;12246;47.612;18.906;2022-11-02T02:59:44;10.60;99.90
24041;DHT22;12246;47.612;18.906;2022-11-02T03:02:37;10.60;99.90
24041;DHT22;12246;47.612;18.906;2022-11-02T03:05:33;10.60;99.90
24041;DHT22;12246;47.612;18.906;2022-11-02T03:08:26;10.60;99.90
24041;DHT22;12246;47.612;18.906;2022-11-02T03:11:19;10.60;99.90
24041;DHT22;12246;47.612;18.906;2022-11-02T03:23:37;10.80;99.90
24041;DHT22;12246;47.612;18.906;2022-11-02T03:26:43;10.90;99.90
24041;DHT22;12246;47.612;18.906;2022-11-02T03:29:52;10.90;99.90
24041;DHT22;12246;47.612;18.906;2022-11-02T03:39:00;11.00;99.90
24041;DHT22;12246;47.612;18.906;2022-11-02T03:41:56;11.00;99.90
24041;DHT22;12246;47.612;18.906;2022-11-02T03:44:54;11.10;99.90
24041;DHT22;12246;47.612;18.906;2022-11-02T03:47:55;11.00;99.90
24041;DHT22;12246;47.612;18.906;2022-11-02T03:50:50;11.00;99.90
24041;DHT22;12246;47.612;18.906;2022-11-02T03:53:48;11.10;99.90
24041;DHT22;12246;47.612;18.906;2022-11-02T03:56:48;11.00;99.90
24041;DHT22;12246;47.612;18.906;2022-11-02T03:59:40;11.00;99.90
24041;DHT22;12246;47.612;18.906;2022-11-02T04:02:35;11.10;99.90
24041;DHT22;12246;47.612;18.906;2022-11-02T04:05:30;11.20;99.90
24041;DHT22;12246;47.612;18.906;2022-11-02T04:08:34;11.10;99.90
24041;DHT22;12246;47.612;18.906;2022-11-02T04:11:28;11.10;99.90
24041;DHT22;12246;47.612;18.906;2022-11-02T04:14:39;11.20;99.90
24041;DHT22;12246;47.612;18.906;2022-11-02T04:17:32;11.20;99.90
24041;DHT22;12246;47.612;18.906;2022-11-02T04:20:43;11.20;99.90
24041;DHT22;12246;47.612;18.906;2022-11-02T04:23:35;11.30;99.90
24041;DHT22;12246;47.612;18.906;2022-11-02T04:26:47;11.30;99.90
24041;DHT22;12246;47.612;18.906;2022-11-02T04:29:40;11.40;99.90
24041;DHT22;12246;47.612;18.906;2022-11-02T04:32:42;11.40;99.90
24041;DHT22;12246;47.612;18.906;2022-11-02T04:35:53;11.40;99.90
24041;DHT22;12246;47.612;18.906;2022-11-02T04:38:45;11.40;99.90
24041;DHT22;12246;47.612;18.906;2022-11-02T04:41:37;11.50;99.90
24041;DHT22;12246;47.612;18.906;2022-11-02T04:44:32;11.40;99.90
24041;DHT22;12246;47.612;18.906;2022-11-02T04:47:24;11.40;99.90
24041;DHT22;12246;47.612;18.906;2022-11-02T04:50:16;11.50;99.90
24041;DHT22;12246;47.612;18.906;2022-11-02T04:53:08;11.50;99.90
24041;DHT22;12246;47.612;18.906;2022-11-02T04:56:01;11.50;99.90
24041;DHT22;12246;47.612;18.906;2022-11-02T04:58:58;11.40;99.90
24041;DHT22;12246;47.612;18.906;2022-11-02T05:01:50;11.40;99.90
24041;DHT22;12246;47.612;18.906;2022-11-02T05:04:42;11.30;99.90
24041;DHT22;12246;47.612;18.906;2022-11-02T05:07:35;11.30;99.90
24041;DHT22;12246;47.612;18.906;2022-11-02T05:10:27;11.40;99.90
24041;DHT22;12246;47.612;18.906;2022-11-02T05:13:19;11.30;99.90
24041;DHT22;12246;47.612;18.906;2022-11-02T05:16:13;11.30;99.90
24041;DHT22;12246;47.612;18.906;2022-11-02T05:19:05;11.30;99.90
24041;DHT22;12246;47.612;18.906;2022-11-02T05:22:01;11.30;99.90
24041;DHT22;12246;47.612;18.906;2022-11-02T05:24:54;11.30;99.90
24041;DHT22;12246;47.612;18.906;2022-11-02T05:27:46;11.30;99.90
24041;DHT22;12246;47.612;18.906;2022-11-02T05:30:38;11.30;99.90
24041;DHT22;12246;47.612;18.906;2022-11-02T05:33:31;11.30;99.90
24041;DHT22;12246;47.612;18.906;2022-11-02T05:36:23;11.40;99.90
24041;DHT22;12246;47.612;18.906;2022-11-02T05:39:18;11.40;99.90
24041;DHT22;12246;47.612;18.906;2022-11-02T05:42:10;11.40;99.90
24041;DHT22;12246;47.612;18.906;2022-11-02T05:45:02;11.40;99.90
24041;DHT22;12246;47.612;18.906;2022-11-02T05:47:54;11.40;99.90
24041;DHT22;12246;47.612;18.906;2022-11-02T05:50:47;11.40;99.90
24041;DHT22;12246;47.612;18.906;2022-11-02T05:53:40;11.40;99.90
24041;DHT22;12246;47.612;18.906;2022-11-02T05:56:32;11.40;99.90
24041;DHT22;12246;47.612;18.906;2022-11-02T05:59:24;11.50;99.90
24041;DHT22;12246;47.612;18.906;2022-11-02T06:02:16;11.50;99.90
24041;DHT22;12246;47.612;18.906;2022-11-02T06:05:13;11.50;99.90
24041;DHT22;12246;47.612;18.906;2022-11-02T06:08:06;11.50;99.90
24041;DHT22;12246;47.612;18.906;2022-11-02T06:11:02;11.50;99.90
24041;DHT22;12246;47.612;18.906;2022-11-02T06:13:54;11.50;99.90
24041;DHT22;12246;47.612;18.906;2022-11-02T06:16:46;11.50;99.90
24041;DHT22;12246;47.612;18.906;2022-11-02T06:19:38;11.50;99.90
24041;DHT22;12246;47.612;18.906;2022-11-02T06:22:37;11.60;99.90
24041;DHT22;12246;47.612;18.906;2022-11-02T06:25:30;11.60;99.90
24041;DHT22;12246;47.612;18.906;2022-11-02T06:28:22;11.80;99.90
24041;DHT22;12246;47.612;18.906;2022-11-02T06:31:14;11.80;99.90
24041;DHT22;12246;47.612;18.906;2022-11-02T06:34:08;11.90;99.90
24041;DHT22;12246;47.612;18.906;2022-11-02T06:37:00;12.00;99.90
24041;DHT22;12246;47.612;18.906;2022-11-02T06:39:52;12.00;99.90
24041;DHT22;12246;47.612;18.906;2022-11-02T06:42:44;12.00;99.90
24041;DHT22;12246;47.612;18.906;2022-11-02T06:45:57;12.00;99.90
24041;DHT22;12246;47.612;18.906;2022-11-02T06:48:50;12.00;99.90
24041;DHT22;12246;47.612;18.906;2022-11-02T06:51:42;12.00;99.90
24041;DHT22;12246;47.612;18.906;2022-11-02T06:54:34;12.00;99.90
24041;DHT22;12246;47.612;18.906;2022-11-02T06:57:26;12.00;99.90
24041;DHT22;12246;47.612;18.906;2022-11-02T07:00:18;12.00;99.90
24041;DHT22;12246;47.612;18.906;2022-11-02T07:03:15;11.90;99.90
24041;DHT22;12246;47.612;18.906;2022-11-02T07:06:07;11.90;99.90
24041;DHT22;12246;47.612;18.906;2022-11-02T07:09:05;11.80;99.90
24041;DHT22;12246;47.612;18.906;2022-11-02T07:11:57;11.80;99.90
24041;DHT22;12246;47.612;18.906;2022-11-02T07:14:49;11.80;99.90
24041;DHT22;12246;47.612;18.906;2022-11-02T07:17:41;11.90;99.90
24041;DHT22;12246;47.612;18.906;2022-11-02T07:20:34;12.10;99.90
24041;DHT22;12246;47.612;18.906;2022-11-02T07:23:26;12.30;99.90
24041;DHT22;12246;47.612;18.906;2022-11-02T07:26:19;12.40;99.90
24041;DHT22;12246;47.612;18.906;2022-11-02T07:29:11;12.70;99.90
24041;DHT22;12246;47.612;18.906;2022-11-02T07:32:03;13.10;99.90
24041;DHT22;12246;47.612;18.906;2022-11-02T07:34:57;13.10;99.90
24041;DHT22;12246;47.612;18.906;2022-11-02T07:37:55;13.00;99.90
24041;DHT22;12246;47.612;18.906;2022-11-02T07:40:48;12.90;99.90
24041;DHT22;12246;47.612;18.906;2022-11-02T07:43:43;13.00;99.90
24041;DHT22;12246;47.612;18.906;2022-11-02T07:46:35;13.10;99.90
24041;DHT22;12246;47.612;18.906;2022-11-02T07:49:27;13.30;99.90
24041;DHT22;12246;47.612;18.906;2022-11-02T07:52:19;13.40;99.90
24041;DHT22;12246;47.612;18.906;2022-11-02T07:55:13;13.50;99.90
24041;DHT22;12246;47.612;18.906;2022-11-02T07:58:09;13.50;99.90
24041;DHT22;12246;47.612;18.906;2022-11-02T08:01:02;13.50;99.90
24041;DHT22;12246;47.612;18.906;2022-11-02T08:03:54;13.50;99.90
24041;DHT22;12246;47.612;18.906;2022-11-02T08:06:47;13.90;99.90
24041;DHT22;12246;47.612;18.906;2022-11-02T08:09:39;14.80;99.90
24041;DHT22;12246;47.612;18.906;2022-11-02T08:12:31;15.40;99.90
24041;DHT22;12246;47.612;18.906;2022-11-02T08:15:23;16.00;99.90
24041;DHT22;12246;47.612;18.906;2022-11-02T08:18:18;16.40;99.90
24041;DHT22;12246;47.612;18.906;2022-11-02T08:21:10;16.70;99.90
24041;DHT22;12246;47.612;18.906;2022-11-02T08:24:03;16.80;99.90
24041;DHT22;12246;47.612;18.906;2022-11-02T08:26:55;17.00;99.90
24041;DHT22;12246;47.612;18.906;2022-11-02T08:29:47;16.70;99.90
24041;DHT22;12246;47.612;18.906;2022-11-02T08:32:39;16.30;99.90
24041;DHT22;12246;47.612;18.906;2022-11-02T08:35:32;16.10;99.90
24041;DHT22;12246;47.612;18.906;2022-11-02T08:38:25;15.80;99.90
24041;DHT22;12246;47.612;18.906;2022-11-02T08:41:18;15.60;99.90
24041;DHT22;12246;47.612;18.906;2022-11-02T08:44:10;15.40;99.90
24041;DHT22;12246;47.612;18.906;2022-11-02T08:47:02;15.30;99.90
24041;DHT22;12246;47.612;18.906;2022-11-02T08:50:00;15.30;99.90
24041;DHT22;12246;47.612;18.906;2022-11-02T08:52:52;15.40;99.90
24041;DHT22;12246;47.612;18.906;2022-11-02T08:55:44;15.40;99.90
24041;DHT22;12246;47.612;18.906;2022-11-02T08:58:36;15.40;99.90
24041;DHT22;12246;47.612;18.906;2022-11-02T09:01:29;15.40;99.90
24041;DHT22;12246;47.612;18.906;2022-11-02T09:04:21;15.40;99.90
24041;DHT22;12246;47.612;18.906;2022-11-02T09:07:13;15.40;99.90
24041;DHT22;12246;47.612;18.906;2022-11-02T09:10:05;15.40;99.90
24041;DHT22;12246;47.612;18.906;2022-11-02T09:12:59;15.50;99.90
24041;DHT22;12246;47.612;18.906;2022-11-02T09:15:54;15.50;99.90
24041;DHT22;12246;47.612;18.906;2022-11-02T09:18:46;15.60;99.90
24041;DHT22;12246;47.612;18.906;2022-11-02T09:21:38;15.60;99.90
24041;DHT22;12246;47.612;18.906;2022-11-02T09:24:31;15.60;99.90
24041;DHT22;12246;47.612;18.906;2022-11-02T09:27:23;15.70;99.90
24041;DHT22;12246;47.612;18.906;2022-11-02T09:30:15;15.70;99.90
24041;DHT22;12246;47.612;18.906;2022-11-02T09:33:07;15.80;99.90
24041;DHT22;12246;47.612;18.906;2022-11-02T09:36:02;15.80;99.90
24041;DHT22;12246;47.612;18.906;2022-11-02T09:38:54;15.70;99.90
24041;DHT22;12246;47.612;18.906;2022-11-02T09:41:57;15.70;99.90
24041;DHT22;12246;47.612;18.906;2022-11-02T09:45:04;15.70;99.90
24041;DHT22;12246;47.612;18.906;2022-11-02T09:48:22;15.70;99.90
24041;DHT22;12246;47.612;18.906;2022-11-02T09:51:23;15.90;99.90
24041;DHT22;12246;47.612;18.906;2022-11-02T09:54:29;15.80;99.90
24041;DHT22;12246;47.612;18.906;2022-11-02T09:57:28;15.70;99.90
24041;DHT22;12246;47.612;18.906;2022-11-02T10:00:21;15.70;99.90
24041;DHT22;12246;47.612;18.906;2022-11-02T10:06:49;15.50;99.90
24041;DHT22;12246;47.612;18.906;2022-11-02T10:09:53;15.40;99.90
24041;DHT22;12246;47.612;18.906;2022-11-02T10:12:57;15.40;99.90
24041;DHT22;12246;47.612;18.906;2022-11-02T10:15:56;15.50;99.90
24041;DHT22;12246;47.612;18.906;2022-11-02T10:18:52;15.60;99.90
24041;DHT22;12246;47.612;18.906;2022-11-02T10:21:47;15.60;99.90
24041;DHT22;12246;47.612;18.906;2022-11-02T10:24:43;15.50;99.90
24041;DHT22;12246;47.612;18.906;2022-11-02T10:27:37;15.60;99.90
24041;DHT22;12246;47.612;18.906;2022-11-02T10:30:31;15.50;99.90
24041;DHT22;12246;47.612;18.906;2022-11-02T10:33:27;15.60;99.90
24041;DHT22;12246;47.612;18.906;2022-11-02T10:36:51;15.70;99.90
24041;DHT22;12246;47.612;18.906;2022-11-02T10:40:38;15.80;99.90
24041;DHT22;12246;47.612;18.906;2022-11-02T10:52:39;15.50;99.90
24041;DHT22;12246;47.612;18.906;2022-11-02T10:55:56;15.50;99.90
24041;DHT22;12246;47.612;18.906;2022-11-02T10:59:02;15.50;99.90
24041;DHT22;12246;47.612;18.906;2022-11-02T11:05:11;15.50;99.90
24041;DHT22;12246;47.612;18.906;2022-11-02T11:08:04;15.30;99.90
24041;DHT22;12246;47.612;18.906;2022-11-02T11:14:16;15.60;99.90
24041;DHT22;12246;47.612;18.906;2022-11-02T11:17:33;15.90;99.90
24041;DHT22;12246;47.612;18.906;2022-11-02T11:20:46;16.20;99.90
24041;DHT22;12246;47.612;18.906;2022-11-02T11:23:39;16.40;99.90
24041;DHT22;12246;47.612;18.906;2022-11-02T11:26:31;16.60;99.90
24041;DHT22;12246;47.612;18.906;2022-11-02T11:29:23;16.40;99.90
24041;DHT22;12246;47.612;18.906;2022-11-02T11:32:26;16.40;99.90
24041;DHT22;12246;47.612;18.906;2022-11-02T11:35:22;16.30;99.90
24041;DHT22;12246;47.612;18.906;2022-11-02T11:38:18;16.40;99.90
24041;DHT22;12246;47.612;18.906;2022-11-02T11:41:11;16.60;99.90
24041;DHT22;12246;47.612;18.906;2022-11-02T11:44:11;16.80;99.90
24041;DHT22;12246;47.612;18.906;2022-11-02T11:47:04;16.90;99.90
24041;DHT22;12246;47.612;18.906;2022-11-02T11:49:58;16.90;99.90
24041;DHT22;12246;47.612;18.906;2022-11-02T11:56:24;17.00;99.90
24041;DHT22;12246;47.612;18.906;2022-11-02T12:02:31;17.10;99.90
24041;DHT22;12246;47.612;18.906;2022-11-02T12:05:34;17.10;99.90
24041;DHT22;12246;47.612;18.906;2022-11-02T12:12:08;17.20;99.90
24041;DHT22;12246;47.612;18.906;2022-11-02T12:18:10;17.10;99.90
24041;DHT22;12246;47.612;18.906;2022-11-02T12:21:34;17.10;99.90
24041;DHT22;12246;47.612;18.906;2022-11-02T12:31:41;17.00;99.90
24041;DHT22;12246;47.612;18.906;2022-11-02T12:41:38;17.00;99.90
24041;DHT22;12246;47.612;18.906;2022-11-02T12:47:56;17.30;99.90
24041;DHT22;12246;47.612;18.906;2022-11-02T12:50:59;17.20;99.90
24041;DHT22;12246;47.612;18.906;2022-11-02T12:53:59;17.00;99.90
24041;DHT22;12246;47.612;18.906;2022-11-02T12:56:55;16.90;99.90
24041;DHT22;12246;47.612;18.906;2022-11-02T12:59:51;16.90;99.90
24041;DHT22;12246;47.612;18.906;2022-11-02T13:05:47;16.90;99.90
24041;DHT22;12246;47.612;18.906;2022-11-02T13:08:44;17.00;99.90
24041;DHT22;12246;47.612;18.906;2022-11-02T13:11:43;17.10;99.90
24041;DHT22;12246;47.612;18.906;2022-11-02T13:14:42;17.20;99.90
24041;DHT22;12246;47.612;18.906;2022-11-02T13:20:43;17.30;99.90
24041;DHT22;12246;47.612;18.906;2022-11-02T13:23:49;17.30;99.90
24041;DHT22;12246;47.612;18.906;2022-11-02T13:26:43;17.30;99.90
24041;DHT22;12246;47.612;18.906;2022-11-02T13:29:50;17.30;99.90
24041;DHT22;12246;47.612;18.906;2022-11-02T13:32:47;17.40;99.90
24041;DHT22;12246;47.612;18.906;2022-11-02T13:35:41;17.40;99.90
24041;DHT22;12246;47.612;18.906;2022-11-02T13:54:46;17.40;99.90
24041;DHT22;12246;47.612;18.906;2022-11-02T13:57:46;17.40;99.90
24041;DHT22;12246;47.612;18.906;2022-11-02T14:00:43;17.30;99.90
24041;DHT22;12246;47.612;18.906;2022-11-02T14:06:57;17.20;99.90
24041;DHT22;12246;47.612;18.906;2022-11-02T14:09:55;17.10;99.90
24041;DHT22;12246;47.612;18.906;2022-11-02T14:12:48;17.00;99.90
24041;DHT22;12246;47.612;18.906;2022-11-02T14:15:42;17.00;99.90
24041;DHT22;12246;47.612;18.906;2022-11-02T14:18:34;16.90;99.90
24041;DHT22;12246;47.612;18.906;2022-11-02T14:27:34;16.90;99.90
24041;DHT22;12246;47.612;18.906;2022-11-02T14:30:39;16.80;99.90
24041;DHT22;12246;47.612;18.906;2022-11-02T14:49:27;16.50;99.90
24041;DHT22;12246;47.612;18.906;2022-11-02T14:52:31;16.40;99.90
24041;DHT22;12246;47.612;18.906;2022-11-02T14:55:27;16.40;99.90
24041;DHT22;12246;47.612;18.906;2022-11-02T14:58:28;16.30;99.90
24041;DHT22;12246;47.612;18.906;2022-11-02T15:01:23;16.30;99.90
24041;DHT22;12246;47.612;18.906;2022-11-02T15:04:15;16.30;99.90
24041;DHT22;12246;47.612;18.906;2022-11-02T15:07:30;16.20;99.90
24041;DHT22;12246;47.612;18.906;2022-11-02T15:13:23;16.10;99.90
24041;DHT22;12246;47.612;18.906;2022-11-02T15:16:22;16.10;99.90
24041;DHT22;12246;47.612;18.906;2022-11-02T15:25:29;15.80;99.90
24041;DHT22;12246;47.612;18.906;2022-11-02T15:28:25;15.70;99.90
24041;DHT22;12246;47.612;18.906;2022-11-02T15:31:20;15.60;99.90
24041;DHT22;12246;47.612;18.906;2022-11-02T15:34:17;15.30;99.90
24041;DHT22;12246;47.612;18.906;2022-11-02T15:37:25;15.30;99.90
24041;DHT22;12246;47.612;18.906;2022-11-02T15:40:23;15.20;99.90
24041;DHT22;12246;47.612;18.906;2022-11-02T15:53:38;15.10;99.90
24041;DHT22;12246;47.612;18.906;2022-11-02T15:56:45;15.00;99.90
24041;DHT22;12246;47.612;18.906;2022-11-02T16:00:10;15.00;99.90
24041;DHT22;12246;47.612;18.906;2022-11-02T16:03:06;14.80;99.90
24041;DHT22;12246;47.612;18.906;2022-11-02T16:05:58;14.80;99.90
24041;DHT22;12246;47.612;18.906;2022-11-02T16:08:59;14.80;99.90
24041;DHT22;12246;47.612;18.906;2022-11-02T16:15:13;14.70;99.90
24041;DHT22;12246;47.612;18.906;2022-11-02T16:18:35;14.70;99.90
24041;DHT22;12246;47.612;18.906;2022-11-02T16:21:29;14.70;99.90
24041;DHT22;12246;47.612;18.906;2022-11-02T16:24:23;14.50;99.90
24041;DHT22;12246;47.612;18.906;2022-11-02T16:27:15;14.40;99.90
24041;DHT22;12246;47.612;18.906;2022-11-02T16:30:19;14.40;99.90
24041;DHT22;12246;47.612;18.906;2022-11-02T16:33:12;14.30;99.90
24041;DHT22;12246;47.612;18.906;2022-11-02T16:36:22;14.20;99.90
24041;DHT22;12246;47.612;18.906;2022-11-02T16:39:20;14.10;99.90
24041;DHT22;12246;47.612;18.906;2022-11-02T16:42:20;14.00;99.90
24041;DHT22;12246;47.612;18.906;2022-11-02T16:45:34;13.90;99.90
24041;DHT22;12246;47.612;18.906;2022-11-02T16:48:34;13.90;99.90
24041;DHT22;12246;47.612;18.906;2022-11-02T16:51:26;13.80;99.90
24041;DHT22;12246;47.612;18.906;2022-11-02T16:54:39;13.80;99.90
24041;DHT22;12246;47.612;18.906;2022-11-02T16:57:41;13.80;99.90
24041;DHT22;12246;47.612;18.906;2022-11-02T17:00:35;13.80;99.90
24041;DHT22;12246;47.612;18.906;2022-11-02T17:03:31;13.70;99.90
24041;DHT22;12246;47.612;18.906;2022-11-02T17:06:24;13.70;99.90
24041;DHT22;12246;47.612;18.906;2022-11-02T17:09:26;13.50;99.90
24041;DHT22;12246;47.612;18.906;2022-11-02T17:12:28;13.40;99.90
24041;DHT22;12246;47.612;18.906;2022-11-02T17:15:23;13.30;99.90
24041;DHT22;12246;47.612;18.906;2022-11-02T17:21:28;13.20;99.90
24041;DHT22;12246;47.612;18.906;2022-11-02T17:24:30;13.20;99.90
24041;DHT22;12246;47.612;18.906;2022-11-02T17:27:25;13.20;99.90
24041;DHT22;12246;47.612;18.906;2022-11-02T17:33:25;13.40;99.90
24041;DHT22;12246;47.612;18.906;2022-11-02T17:36:19;13.50;99.90
24041;DHT22;12246;47.612;18.906;2022-11-02T17:39:13;13.60;99.90
24041;DHT22;12246;47.612;18.906;2022-11-02T17:42:15;13.60;99.90
24041;DHT22;12246;47.612;18.906;2022-11-02T17:45:29;13.70;99.90
24041;DHT22;12246;47.612;18.906;2022-11-02T17:48:22;13.60;99.90
24041;DHT22;12246;47.612;18.906;2022-11-02T17:51:18;13.70;99.90
24041;DHT22;12246;47.612;18.906;2022-11-02T17:54:12;13.70;99.90
24041;DHT22;12246;47.612;18.906;2022-11-02T17:57:11;13.70;99.90
24041;DHT22;12246;47.612;18.906;2022-11-02T18:00:03;13.70;99.90
24041;DHT22;12246;47.612;18.906;2022-11-02T18:02:57;13.70;99.90
24041;DHT22;12246;47.612;18.906;2022-11-02T18:05:50;13.60;99.90
24041;DHT22;12246;47.612;18.906;2022-11-02T18:08:49;13.60;99.90
24041;DHT22;12246;47.612;18.906;2022-11-02T18:12:00;13.50;99.90
24041;DHT22;12246;47.612;18.906;2022-11-02T18:14:52;13.60;99.90
24041;DHT22;12246;47.612;18.906;2022-11-02T18:17:45;13.60;99.90
24041;DHT22;12246;47.612;18.906;2022-11-02T18:20:38;13.50;99.90
24041;DHT22;12246;47.612;18.906;2022-11-02T18:23:32;13.40;99.90
24041;DHT22;12246;47.612;18.906;2022-11-02T18:26:26;13.40;99.90
24041;DHT22;12246;47.612;18.906;2022-11-02T18:29:18;13.40;99.90
24041;DHT22;12246;47.612;18.906;2022-11-02T18:32:10;13.30;99.90
24041;DHT22;12246;47.612;18.906;2022-11-02T18:35:05;13.30;99.90
24041;DHT22;12246;47.612;18.906;2022-11-02T18:37:57;13.30;99.90
24041;DHT22;12246;47.612;18.906;2022-11-02T18:40:50;13.30;99.90
24041;DHT22;12246;47.612;18.906;2022-11-02T18:43:42;13.20;99.90
24041;DHT22;12246;47.612;18.906;2022-11-02T18:46:35;13.20;99.90
24041;DHT22;12246;47.612;18.906;2022-11-02T18:49:27;13.10;99.90
24041;DHT22;12246;47.612;18.906;2022-11-02T18:52:19;13.10;99.90
24041;DHT22;12246;47.612;18.906;2022-11-02T18:55:13;13.10;99.90
24041;DHT22;12246;47.612;18.906;2022-11-02T18:58:05;13.00;99.90
24041;DHT22;12246;47.612;18.906;2022-11-02T19:01:09;13.00;99.90
24041;DHT22;12246;47.612;18.906;2022-11-02T19:04:03;13.00;99.90
24041;DHT22;12246;47.612;18.906;2022-11-02T19:06:55;12.90;99.90
24041;DHT22;12246;47.612;18.906;2022-11-02T19:10:08;12.90;99.90
24041;DHT22;12246;47.612;18.906;2022-11-02T19:13:00;12.80;99.90
24041;DHT22;12246;47.612;18.906;2022-11-02T19:15:54;12.80;99.90
24041;DHT22;12246;47.612;18.906;2022-11-02T19:18:47;12.80;99.90
24041;DHT22;12246;47.612;18.906;2022-11-02T19:21:41;12.80;99.90
24041;DHT22;12246;47.612;18.906;2022-11-02T19:24:34;12.70;99.90
24041;DHT22;12246;47.612;18.906;2022-11-02T19:27:26;12.80;99.90
24041;DHT22;12246;47.612;18.906;2022-11-02T19:30:18;12.70;99.90
24041;DHT22;12246;47.612;18.906;2022-11-02T19:33:10;12.80;99.90
24041;DHT22;12246;47.612;18.906;2022-11-02T19:36:03;12.80;99.90
24041;DHT22;12246;47.612;18.906;2022-11-02T19:38:55;12.80;99.90
24041;DHT22;12246;47.612;18.906;2022-11-02T19:41:49;12.70;99.90
24041;DHT22;12246;47.612;18.906;2022-11-02T19:44:43;12.70;99.90
24041;DHT22;12246;47.612;18.906;2022-11-02T19:47:35;12.70;99.90
24041;DHT22;12246;47.612;18.906;2022-11-02T19:50:27;12.60;99.90
24041;DHT22;12246;47.612;18.906;2022-11-02T19:53:19;12.70;99.90
24041;DHT22;12246;47.612;18.906;2022-11-02T19:56:12;12.60;99.90
24041;DHT22;12246;47.612;18.906;2022-11-02T19:59:05;12.70;99.90
24041;DHT22;12246;47.612;18.906;2022-11-02T20:01:57;12.60;99.90
24041;DHT22;12246;47.612;18.906;2022-11-02T20:04:49;12.60;99.90
24041;DHT22;12246;47.612;18.906;2022-11-02T20:07:42;12.60;99.90
24041;DHT22;12246;47.612;18.906;2022-11-02T20:10:34;12.50;99.90
24041;DHT22;12246;47.612;18.906;2022-11-02T20:13:26;12.50;99.90
24041;DHT22;12246;47.612;18.906;2022-11-02T20:16:19;12.40;99.90
24041;DHT22;12246;47.612;18.906;2022-11-02T20:19:12;12.30;99.90
24041;DHT22;12246;47.612;18.906;2022-11-02T20:22:04;12.20;99.90
24041;DHT22;12246;47.612;18.906;2022-11-02T20:24:56;12.20;99.90
24041;DHT22;12246;47.612;18.906;2022-11-02T20:27:48;12.20;99.90
24041;DHT22;12246;47.612;18.906;2022-11-02T20:30:41;12.20;99.90
24041;DHT22;12246;47.612;18.906;2022-11-02T20:33:34;12.20;99.90
24041;DHT22;12246;47.612;18.906;2022-11-02T20:36:27;12.20;99.90
24041;DHT22;12246;47.612;18.906;2022-11-02T20:39:19;12.10;99.90
24041;DHT22;12246;47.612;18.906;2022-11-02T20:42:11;12.10;99.90
24041;DHT22;12246;47.612;18.906;2022-11-02T20:45:04;12.10;99.90